createdAt,value
2022-08-17T00:01:27.607Z,94.09
2022-08-17T00:04:01.078Z,94.35
2022-08-17T00:06:36.323Z,94.49
2022-08-17T00:09:10.534Z,94.35
2022-08-17T00:12:34.601Z,94.46
2022-08-17T00:14:49.166Z,94.56
2022-08-17T00:17:23.984Z,94.55
2022-08-17T00:19:57.920Z,94.65
2022-08-17T00:22:36.132Z,94.69
2022-08-17T00:25:17.324Z,94.71
2022-08-17T00:27:51.304Z,94.87
2022-08-17T00:30:25.487Z,94.91
2022-08-17T00:33:16.082Z,94.68
2022-08-17T00:35:54.110Z,94.68
2022-08-17T00:38:29.256Z,94.41
2022-08-17T00:41:08.178Z,94.20
2022-08-17T00:43:45.951Z,94.05
2022-08-17T00:46:26.945Z,93.83
2022-08-17T00:49:05.335Z,93.89
2022-08-17T00:51:55.848Z,93.86
2022-08-17T00:54:41.705Z,93.76
2022-08-17T00:57:28.861Z,93.57
2022-08-17T01:00:26.985Z,93.34
2022-08-17T01:03:06.878Z,93.73
2022-08-17T01:05:42.648Z,93.80
2022-08-17T01:08:20.140Z,93.92
2022-08-17T01:11:01.584Z,93.92
2022-08-17T01:13:46.558Z,93.72
2022-08-17T01:16:24.109Z,93.76
2022-08-17T01:19:04.629Z,93.48
2022-08-17T01:21:46.098Z,93.55
2022-08-17T01:24:20.226Z,93.50
2022-08-17T01:26:53.914Z,93.63
2022-08-17T01:29:33.879Z,93.93
2022-08-17T01:32:09.850Z,94.05
2022-08-17T01:34:50.498Z,94.00
2022-08-17T01:37:43.045Z,93.91
2022-08-17T01:40:17.650Z,93.70
2022-08-17T01:43:12.795Z,93.44
2022-08-17T01:45:50.122Z,93.44
2022-08-17T01:48:43.614Z,93.20
2022-08-17T01:51:17.853Z,93.05
2022-08-17T01:53:58.802Z,92.96
2022-08-17T01:56:34.918Z,92.26
2022-08-17T01:59:08.690Z,92.91
2022-08-17T02:01:42.524Z,92.99
2022-08-17T02:04:16.395Z,93.05
2022-08-17T02:06:54.241Z,92.99
2022-08-17T02:09:31.172Z,92.96
2022-08-17T02:12:37.163Z,92.92
2022-08-17T02:15:00.701Z,92.92
2022-08-17T02:17:34.382Z,92.81
2022-08-17T02:20:09.534Z,92.87
2022-08-17T02:22:46.513Z,92.86
2022-08-17T02:25:22.334Z,92.86
2022-08-17T02:27:56.995Z,92.90
2022-08-17T02:30:59.579Z,92.81
2022-08-17T02:33:25.294Z,93.03
2022-08-17T02:36:19.069Z,92.91
2022-08-17T02:38:52.166Z,92.86
2022-08-17T02:41:25.222Z,92.87
2022-08-17T02:43:59.161Z,92.82
2022-08-17T02:46:32.967Z,92.97
2022-08-17T02:49:06.470Z,93.07
2022-08-17T02:51:39.368Z,92.95
2022-08-17T02:54:39.672Z,92.95
2022-08-17T02:57:07.065Z,93.04
2022-08-17T02:59:45.448Z,93.03
2022-08-17T03:02:23.356Z,93.03
2022-08-17T03:04:56.927Z,93.22
2022-08-17T03:07:32.562Z,93.10
2022-08-17T03:10:09.249Z,93.01
2022-08-17T03:12:44.292Z,93.16
2022-08-17T03:15:23.216Z,93.04
2022-08-17T03:17:58.033Z,92.91
2022-08-17T03:20:33.586Z,92.77
2022-08-17T03:23:07.699Z,92.71
2022-08-17T03:25:47.040Z,92.67
2022-08-17T03:28:20.378Z,92.96
2022-08-17T03:30:53.688Z,92.98
2022-08-17T03:33:26.998Z,92.92
2022-08-17T03:36:00.169Z,92.94
2022-08-17T03:38:39.304Z,92.87
2022-08-17T03:41:14.357Z,92.55
2022-08-17T03:43:47.473Z,92.79
2022-08-17T03:46:39.708Z,92.59
2022-08-17T03:49:32.027Z,92.27
2022-08-17T03:52:23.041Z,92.17
2022-08-17T03:55:15.061Z,92.12
2022-08-17T03:57:49.330Z,92.08
2022-08-17T04:00:22.886Z,92.04
2022-08-17T04:02:56.513Z,92.14
2022-08-17T04:05:30.743Z,92.04
2022-08-17T04:08:08.314Z,92.13
2022-08-17T04:10:45.286Z,91.95
2022-08-17T04:13:25.009Z,91.72
2022-08-17T04:16:00.374Z,91.91
2022-08-17T04:18:33.666Z,91.72
2022-08-17T04:21:07.160Z,91.29
2022-08-17T04:23:39.929Z,91.73
2022-08-17T04:26:52.877Z,91.70
2022-08-17T04:29:09.875Z,91.84
2022-08-17T04:31:43.251Z,91.96
2022-08-17T04:34:16.254Z,92.26
2022-08-17T04:36:53.312Z,92.32
2022-08-17T04:39:26.652Z,92.10
2022-08-17T04:42:09.763Z,92.08
2022-08-17T04:44:42.845Z,91.95
2022-08-17T04:47:16.135Z,92.11
2022-08-17T04:49:48.898Z,92.02
2022-08-17T04:52:29.785Z,91.24
2022-08-17T04:55:18.628Z,91.60
2022-08-17T04:57:51.995Z,91.75
2022-08-17T05:00:26.602Z,91.45
2022-08-17T05:03:00.573Z,90.43
2022-08-17T05:05:36.956Z,90.10
2022-08-17T05:08:10.343Z,89.97
2022-08-17T05:10:45.579Z,90.52
2022-08-17T05:13:21.349Z,90.98
2022-08-17T05:15:59.493Z,91.14
2022-08-17T05:18:33.053Z,91.12
2022-08-17T05:21:07.068Z,91.13
2022-08-17T05:23:42.730Z,90.89
2022-08-17T05:26:26.190Z,91.11
2022-08-17T05:29:03.584Z,90.51
2022-08-17T05:31:37.315Z,90.51
2022-08-17T05:34:11.971Z,90.59
2022-08-17T05:36:45.651Z,90.09
2022-08-17T05:39:18.704Z,90.28
2022-08-17T05:41:52.195Z,90.62
2022-08-17T05:44:25.211Z,89.62
2022-08-17T05:47:01.584Z,90.18
2022-08-17T05:49:34.961Z,89.50
2022-08-17T05:52:55.602Z,89.46
2022-08-17T05:55:55.800Z,89.35
2022-08-17T05:58:58.922Z,88.89
2022-08-17T06:01:37.340Z,89.10
2022-08-17T06:04:35.777Z,89.20
2022-08-17T06:07:16.506Z,88.73
2022-08-17T06:10:12.771Z,88.84
2022-08-17T06:13:11.298Z,88.26
2022-08-17T06:16:28.235Z,87.98
2022-08-17T06:19:19.193Z,87.05
2022-08-17T06:21:54.619Z,87.24
2022-08-17T06:24:34.670Z,86.95
2022-08-17T06:27:42.306Z,86.53
2022-08-17T06:30:21.823Z,86.02
2022-08-17T06:33:00.143Z,85.27
2022-08-17T06:35:40.033Z,85.13
2022-08-17T06:38:38.351Z,84.74
2022-08-17T06:41:39.128Z,85.24
2022-08-17T06:44:50.194Z,84.90
2022-08-17T06:47:48.992Z,84.39
2022-08-17T06:50:40.712Z,84.35
2022-08-17T06:53:40.854Z,82.50
2022-08-17T06:56:16.284Z,82.22
2022-08-17T06:58:50.378Z,81.69
2022-08-17T07:01:31.725Z,79.83
2022-08-17T07:04:19.723Z,81.32
2022-08-17T07:07:01.550Z,81.19
2022-08-17T07:09:36.513Z,80.71
2022-08-17T07:12:18.846Z,79.01
2022-08-17T07:15:15.346Z,79.35
2022-08-17T07:17:48.705Z,79.42
2022-08-17T07:20:23.777Z,79.09
2022-08-17T07:23:16.116Z,77.44
2022-08-17T07:25:49.563Z,74.66
2022-08-17T07:28:30.459Z,74.42
2022-08-17T07:31:05.834Z,75.23
2022-08-17T07:33:39.830Z,74.27
2022-08-17T07:36:35.809Z,73.50
2022-08-17T07:39:12.320Z,72.58
2022-08-17T07:41:59.383Z,71.52
2022-08-17T07:44:32.650Z,70.33
2022-08-17T07:47:25.638Z,68.93
2022-08-17T07:49:58.668Z,70.33
2022-08-17T07:52:51.800Z,69.67
2022-08-17T07:55:40.906Z,68.13
2022-08-17T07:58:26.939Z,68.18
2022-08-17T08:01:18.827Z,67.90
2022-08-17T08:03:53.068Z,68.28
2022-08-17T08:06:27.695Z,66.98
2022-08-17T08:09:01.470Z,66.78
2022-08-17T08:11:44.243Z,65.10
2022-08-17T08:14:40.596Z,65.36
2022-08-17T08:17:14.110Z,65.13
2022-08-17T08:19:47.438Z,63.28
2022-08-17T08:22:31.800Z,63.25
2022-08-17T08:25:15.265Z,63.55
2022-08-17T08:28:12.771Z,64.80
2022-08-17T08:30:53.279Z,63.92
2022-08-17T08:33:57.207Z,61.70
2022-08-17T08:37:02.076Z,60.94
2022-08-17T08:39:54.217Z,62.00
2022-08-17T08:42:44.535Z,62.42
2022-08-17T08:45:25.443Z,61.82
2022-08-17T08:48:06.306Z,61.06
2022-08-17T08:51:13.485Z,61.71
2022-08-17T08:53:46.569Z,61.99
2022-08-17T08:57:19.506Z,61.26
2022-08-17T08:59:58.280Z,60.18
2022-08-17T09:03:03.384Z,60.72
2022-08-17T09:05:45.084Z,61.70
2022-08-17T09:08:35.976Z,59.00
2022-08-17T09:11:28.923Z,61.21
2022-08-17T09:14:28.294Z,59.16
2022-08-17T09:17:42.114Z,59.18
2022-08-17T09:20:27.189Z,58.31
2022-08-17T09:23:37.869Z,58.64
2022-08-17T09:26:23.795Z,59.18
2022-08-17T09:29:01.881Z,59.36
2022-08-17T09:31:49.032Z,56.99
2022-08-17T09:34:34.518Z,56.40
2022-08-17T09:37:26.498Z,57.33
2022-08-17T09:40:42.014Z,56.81
2022-08-17T09:43:48.521Z,54.87
2022-08-17T09:46:27.931Z,56.39
2022-08-17T09:49:11.147Z,56.32
2022-08-17T09:51:56.426Z,56.34
2022-08-17T09:54:41.519Z,56.67
2022-08-17T09:57:32.675Z,55.07
2022-08-17T10:00:20.498Z,56.19
2022-08-17T10:03:03.427Z,55.72
2022-08-17T10:05:47.033Z,55.34
2022-08-17T10:08:54.822Z,55.36
2022-08-17T10:12:10.617Z,55.00
2022-08-17T10:14:53.486Z,54.89
2022-08-17T10:17:40.984Z,55.16
2022-08-17T10:20:39.151Z,53.70
2022-08-17T10:23:43.065Z,52.83
2022-08-17T10:26:25.611Z,52.28
2022-08-17T10:29:13.006Z,52.06
2022-08-17T10:31:56.033Z,52.51
2022-08-17T10:34:49.440Z,51.42
2022-08-17T10:37:59.632Z,50.50
2022-08-17T10:41:00.290Z,51.84
2022-08-17T10:44:38.282Z,51.38
2022-08-17T10:47:20.605Z,53.04
2022-08-17T10:49:56.756Z,54.55
2022-08-17T10:52:50.930Z,55.44
2022-08-17T10:55:26.482Z,56.07
2022-08-17T10:58:22.293Z,54.67
2022-08-17T11:00:58.929Z,54.43
2022-08-17T11:03:33.238Z,52.56
2022-08-17T11:06:25.543Z,53.08
2022-08-17T11:09:10.450Z,54.43
2022-08-17T11:12:12.506Z,54.62
2022-08-17T11:15:26.365Z,54.25
2022-08-17T11:18:16.000Z,52.86
2022-08-17T11:21:08.089Z,52.84
2022-08-17T11:24:12.149Z,53.35
2022-08-17T11:27:05.530Z,53.23
2022-08-17T11:30:08.211Z,52.36
2022-08-17T11:32:54.532Z,52.50
2022-08-17T11:35:41.021Z,52.12
2022-08-17T11:38:29.763Z,52.27
2022-08-17T11:41:14.224Z,52.94
2022-08-17T11:44:02.188Z,53.42
2022-08-17T11:47:29.676Z,53.49
2022-08-17T11:50:44.169Z,51.98
2022-08-17T11:53:49.092Z,52.04
2022-08-17T11:56:49.823Z,52.02
2022-08-17T11:59:34.860Z,52.86
2022-08-17T12:02:35.781Z,52.28
2022-08-17T12:05:26.139Z,52.46
2022-08-17T12:08:15.566Z,52.76
2022-08-17T12:11:08.731Z,52.36
2022-08-17T12:14:01.881Z,51.96
2022-08-17T12:16:36.318Z,52.11
2022-08-17T12:19:19.868Z,52.46
2022-08-17T12:22:45.334Z,52.17
2022-08-17T12:25:24.567Z,51.60
2022-08-17T12:28:06.184Z,51.71
2022-08-17T12:30:41.107Z,52.53
2022-08-17T12:33:25.405Z,52.30
2022-08-17T12:36:07.189Z,53.06
2022-08-17T12:38:42.394Z,52.96
2022-08-17T12:41:30.048Z,53.54
2022-08-17T12:44:06.235Z,53.58
2022-08-17T12:46:50.601Z,53.25
2022-08-17T12:49:31.104Z,53.08
2022-08-17T12:52:16.276Z,51.29
2022-08-17T12:55:07.046Z,51.39
2022-08-17T12:57:43.024Z,50.48
2022-08-17T13:00:22.676Z,50.58
2022-08-17T13:03:01.903Z,50.04
2022-08-17T13:05:56.842Z,49.36
2022-08-17T13:08:36.427Z,49.76
2022-08-17T13:11:22.816Z,50.70
2022-08-17T13:13:57.783Z,50.75
2022-08-17T13:16:34.365Z,51.04
2022-08-17T13:19:29.775Z,50.76
2022-08-17T13:22:15.719Z,50.40
2022-08-17T13:25:01.334Z,50.10
2022-08-17T13:27:35.116Z,50.07
2022-08-17T13:30:15.150Z,50.28
2022-08-17T13:32:49.180Z,50.54
2022-08-17T13:35:41.158Z,50.10
2022-08-17T13:38:17.459Z,50.24
2022-08-17T13:40:53.815Z,50.57
2022-08-17T13:43:49.201Z,50.06
2022-08-17T13:46:24.810Z,49.80
2022-08-17T13:49:11.002Z,49.36
2022-08-17T13:51:49.625Z,49.69
2022-08-17T13:54:27.120Z,49.95
2022-08-17T13:57:29.087Z,49.25
2022-08-17T14:00:21.431Z,49.76
2022-08-17T14:02:54.610Z,49.83
2022-08-17T14:05:27.779Z,50.04
2022-08-17T14:08:06.740Z,50.08
2022-08-17T14:10:41.144Z,49.86
2022-08-17T14:13:15.763Z,49.85
2022-08-17T14:15:55.245Z,50.19
2022-08-17T14:18:55.298Z,49.51
2022-08-17T14:21:24.679Z,49.14
2022-08-17T14:24:00.045Z,49.91
2022-08-17T14:26:33.730Z,50.27
2022-08-17T14:29:14.896Z,50.25
2022-08-17T14:31:54.300Z,50.42
2022-08-17T14:34:29.208Z,50.42
2022-08-17T14:37:02.450Z,50.26
2022-08-17T14:39:35.635Z,50.33
2022-08-17T14:42:09.845Z,50.33
2022-08-17T14:44:43.151Z,50.24
2022-08-17T14:47:16.288Z,50.30
2022-08-17T14:49:50.310Z,50.73
2022-08-17T14:52:23.875Z,50.81
2022-08-17T14:54:57.794Z,51.18
2022-08-17T14:57:33.570Z,51.02
2022-08-17T15:00:08.845Z,51.14
2022-08-17T15:02:55.322Z,51.16
2022-08-17T15:05:33.885Z,51.62
2022-08-17T15:08:08.212Z,52.10
2022-08-17T15:10:41.704Z,52.18
2022-08-17T15:13:23.852Z,52.52
2022-08-17T15:15:57.006Z,52.84
2022-08-17T15:18:30.097Z,53.01
2022-08-17T15:21:05.641Z,53.16
2022-08-17T15:23:40.167Z,53.46
2022-08-17T15:26:15.567Z,53.63
2022-08-17T15:28:54.403Z,53.87
2022-08-17T15:31:31.883Z,53.87
2022-08-17T15:34:08.022Z,53.94
2022-08-17T15:36:49.180Z,54.44
2022-08-17T15:39:23.292Z,54.34
2022-08-17T15:41:58.118Z,54.63
2022-08-17T15:44:32.744Z,54.93
2022-08-17T15:47:08.258Z,55.14
2022-08-17T15:49:45.762Z,55.43
2022-08-17T15:52:20.533Z,55.55
2022-08-17T15:54:58.941Z,55.57
2022-08-17T15:57:31.585Z,55.45
2022-08-17T16:00:06.235Z,55.62
2022-08-17T16:03:31.993Z,55.84
2022-08-17T16:05:40.964Z,56.12
2022-08-17T16:08:20.008Z,56.45
2022-08-17T16:10:55.717Z,56.95
2022-08-17T16:13:29.026Z,57.01
2022-08-17T16:16:01.833Z,57.32
2022-08-17T16:18:34.448Z,57.76
2022-08-17T16:21:42.470Z,57.88
2022-08-17T16:24:15.938Z,58.14
2022-08-17T16:26:48.815Z,58.44
2022-08-17T16:29:21.815Z,59.04
2022-08-17T16:31:54.586Z,59.42
2022-08-17T16:34:27.539Z,60.34
2022-08-17T16:37:00.293Z,60.65
2022-08-17T16:39:34.612Z,60.53
2022-08-17T16:42:09.467Z,60.98
2022-08-17T16:44:42.306Z,61.68
2022-08-17T16:47:18.265Z,61.75
2022-08-17T16:49:51.785Z,62.18
2022-08-17T16:52:32.480Z,63.06
2022-08-17T16:55:09.082Z,63.37
2022-08-17T16:57:47.643Z,63.69
2022-08-17T17:00:24.990Z,63.92
2022-08-17T17:02:58.052Z,63.92
2022-08-17T17:05:33.241Z,64.29
2022-08-17T17:08:26.149Z,64.20
2022-08-17T17:11:08.935Z,64.35
2022-08-17T17:13:54.676Z,64.47
2022-08-17T17:16:41.310Z,64.84
2022-08-17T17:19:42.941Z,65.23
2022-08-17T17:22:56.108Z,65.64
2022-08-17T17:25:40.035Z,65.90
2022-08-17T17:28:32.162Z,66.03
2022-08-17T17:31:21.550Z,66.40
2022-08-17T17:34:04.378Z,66.75
2022-08-17T17:36:48.839Z,67.32
2022-08-17T17:39:49.402Z,68.13
2022-08-17T17:42:31.996Z,68.14
2022-08-17T17:45:07.244Z,68.39
2022-08-17T17:47:41.022Z,68.67
2022-08-17T17:50:14.585Z,68.74
2022-08-17T17:52:53.415Z,69.27
2022-08-17T17:55:44.824Z,69.86
2022-08-17T17:58:38.090Z,69.85
2022-08-17T18:01:42.466Z,69.10
2022-08-17T18:04:32.993Z,69.40
2022-08-17T18:07:23.309Z,69.54
2022-08-17T18:10:34.916Z,69.68
2022-08-17T18:13:40.874Z,69.64
2022-08-17T18:16:17.456Z,69.58
2022-08-17T18:18:52.600Z,69.23
2022-08-17T18:21:31.786Z,68.97
2022-08-17T18:24:06.852Z,68.91
2022-08-17T18:26:57.435Z,68.95
2022-08-17T18:29:38.403Z,69.13
2022-08-17T18:32:31.778Z,69.37
2022-08-17T18:35:12.027Z,69.16
2022-08-17T18:37:49.027Z,69.75
2022-08-17T18:40:21.548Z,69.98
2022-08-17T18:42:59.460Z,69.68
2022-08-17T18:45:36.274Z,69.60
2022-08-17T18:48:21.773Z,69.71
2022-08-17T18:50:56.389Z,70.06
2022-08-17T18:53:42.152Z,70.13
2022-08-17T18:56:36.449Z,70.50
2022-08-17T18:59:20.902Z,70.48
2022-08-17T19:02:27.351Z,70.78
2022-08-17T19:05:35.784Z,71.21
2022-08-17T19:08:21.936Z,71.26
2022-08-17T19:11:21.496Z,71.37
2022-08-17T19:14:03.014Z,71.56
2022-08-17T19:16:41.559Z,71.87
2022-08-17T19:19:28.292Z,72.13
2022-08-17T19:22:28.894Z,72.44
2022-08-17T19:25:19.169Z,72.85
2022-08-17T19:28:00.033Z,73.26
2022-08-17T19:30:33.341Z,73.22
2022-08-17T19:33:06.640Z,73.15
2022-08-17T19:35:51.990Z,73.24
2022-08-17T19:38:49.959Z,73.40
2022-08-17T19:41:28.738Z,73.69
2022-08-17T19:44:07.514Z,73.77
2022-08-17T19:47:00.893Z,73.93
2022-08-17T19:50:10.175Z,74.29
2022-08-17T19:53:07.898Z,74.58
2022-08-17T19:55:58.435Z,74.79
2022-08-17T19:58:57.570Z,74.87
2022-08-17T20:01:49.850Z,75.37
2022-08-17T20:04:32.920Z,75.38
2022-08-17T20:07:21.951Z,75.33
2022-08-17T20:10:04.452Z,75.55
2022-08-17T20:12:40.390Z,75.76
2022-08-17T20:15:30.574Z,75.73
2022-08-17T20:18:07.739Z,76.12
2022-08-17T20:21:03.091Z,77.55
2022-08-17T20:24:00.177Z,76.83
2022-08-17T20:26:42.921Z,76.75
2022-08-17T20:29:53.331Z,76.71
2022-08-17T20:32:32.093Z,76.77
2022-08-17T20:35:09.037Z,76.71
2022-08-17T20:37:44.791Z,76.43
2022-08-17T20:40:23.658Z,76.42
2022-08-17T20:42:57.547Z,76.86
2022-08-17T20:46:04.293Z,77.12
2022-08-17T20:48:47.561Z,77.15
2022-08-17T20:51:43.490Z,77.27
2022-08-17T20:54:54.340Z,77.51
2022-08-17T20:57:50.153Z,77.65
2022-08-17T21:00:31.958Z,77.74
2022-08-17T21:03:24.585Z,77.96
2022-08-17T21:06:17.072Z,77.79
2022-08-17T21:08:59.469Z,77.79
2022-08-17T21:12:02.835Z,77.84
2022-08-17T21:14:58.688Z,78.16
2022-08-17T21:17:36.278Z,78.39
2022-08-17T21:20:39.223Z,79.10
2022-08-17T21:23:32.889Z,78.93
2022-08-17T21:26:18.015Z,78.71
2022-08-17T21:29:31.858Z,79.26
2022-08-17T21:32:01.816Z,79.28
2022-08-17T21:34:35.434Z,79.68
2022-08-17T21:37:25.621Z,79.86
2022-08-17T21:40:39.797Z,79.71
2022-08-17T21:43:33.063Z,80.52
2022-08-17T21:46:28.976Z,82.15
2022-08-17T21:49:13.334Z,82.61
2022-08-17T21:51:55.167Z,81.61
2022-08-17T21:54:40.953Z,81.20
2022-08-17T21:57:28.017Z,80.95
2022-08-17T22:00:03.654Z,80.88
2022-08-17T22:02:40.017Z,81.11
2022-08-17T22:05:17.168Z,81.37
2022-08-17T22:07:52.228Z,81.25
2022-08-17T22:10:34.004Z,81.42
2022-08-17T22:13:29.845Z,81.58
2022-08-17T22:16:28.922Z,81.55
2022-08-17T22:19:07.030Z,81.60
2022-08-17T22:21:40.210Z,81.61
2022-08-17T22:24:25.589Z,81.71
2022-08-17T22:27:13.467Z,81.70
2022-08-17T22:30:01.068Z,81.71
2022-08-17T22:32:38.269Z,81.86
2022-08-17T22:35:37.857Z,81.77
2022-08-17T22:38:22.080Z,82.07
2022-08-17T22:41:15.870Z,82.01
2022-08-17T22:43:48.874Z,82.06
2022-08-17T22:46:27.464Z,81.95
2022-08-17T22:49:02.085Z,82.07
2022-08-17T22:51:35.497Z,82.18
2022-08-17T22:54:50.533Z,82.26
2022-08-17T22:57:44.048Z,82.51
2022-08-17T23:00:43.813Z,82.55
2022-08-17T23:03:24.359Z,82.59
2022-08-17T23:06:10.197Z,83.05
2022-08-17T23:08:55.812Z,83.38
2022-08-17T23:11:36.911Z,82.91
2022-08-17T23:14:24.912Z,82.98
2022-08-17T23:16:57.597Z,83.18
2022-08-17T23:19:33.057Z,83.52
2022-08-17T23:22:08.102Z,86.07
2022-08-17T23:24:51.379Z,85.58
2022-08-17T23:27:25.034Z,84.68
2022-08-17T23:29:58.821Z,84.57
2022-08-17T23:32:32.167Z,84.32
2022-08-17T23:35:05.831Z,83.94
2022-08-17T23:37:41.065Z,83.88
2022-08-17T23:40:14.546Z,84.14
2022-08-17T23:42:47.867Z,84.16
2022-08-17T23:45:22.414Z,84.13
2022-08-17T23:47:55.859Z,84.42
2022-08-17T23:50:31.009Z,84.49
2022-08-17T23:53:08.226Z,84.41
2022-08-17T23:55:41.441Z,84.27
2022-08-17T23:58:14.521Z,84.37
